createdAt,value
2023-04-15T00:04:24.196Z,6.5
2023-04-15T00:06:52.446Z,6.4
2023-04-15T00:09:20.708Z,7.5
2023-04-15T00:11:48.962Z,7.7
2023-04-15T00:14:17.222Z,7.5
2023-04-15T00:16:45.479Z,7.6
2023-04-15T00:19:13.735Z,7.8
2023-04-15T00:21:41.985Z,8.4
2023-04-15T00:22:56.717Z,7.6
2023-04-15T00:24:10.271Z,8.4
2023-04-15T00:26:38.523Z,8.1
2023-04-15T00:29:06.777Z,9.4
2023-04-15T00:31:35.041Z,8
2023-04-15T00:36:31.552Z,7.6
2023-04-15T00:38:59.806Z,8.1
2023-04-15T00:41:28.065Z,7.4
2023-04-15T00:43:56.318Z,8.5
2023-04-15T00:46:24.580Z,8.9
2023-04-15T00:47:39.308Z,8.7
2023-04-15T00:48:52.854Z,7.9
2023-04-15T00:51:21.116Z,8.7
2023-04-15T00:53:49.371Z,9.5
2023-04-15T00:56:17.627Z,8.3
2023-04-15T00:58:45.885Z,9.1
2023-04-15T01:01:14.143Z,8.7
2023-04-15T01:03:42.393Z,10
2023-04-15T01:08:38.911Z,9
2023-04-15T01:11:07.167Z,9.8
2023-04-15T01:12:21.896Z,9.2
2023-04-15T01:13:35.446Z,10.5
2023-04-15T01:16:03.702Z,9.9
2023-04-15T01:18:31.956Z,9.5
2023-04-15T01:21:00.217Z,10.2
2023-04-15T01:23:28.468Z,9.1
2023-04-15T01:25:56.728Z,9.6
2023-04-15T01:28:24.990Z,10.5
2023-04-15T01:30:53.244Z,8.7
2023-04-15T01:33:21.501Z,8.7
2023-04-15T01:35:49.759Z,9.7
2023-04-15T01:38:18.017Z,9.3
2023-04-15T01:40:46.269Z,9
2023-04-15T01:43:14.526Z,8.8
2023-04-15T01:45:42.781Z,8.7
2023-04-15T01:48:11.042Z,8.2
2023-04-15T01:50:39.293Z,8.9
2023-04-15T01:53:07.555Z,9
2023-04-15T01:55:35.809Z,8.7
2023-04-15T01:58:04.069Z,7.4
2023-04-15T02:00:32.329Z,9.5
2023-04-15T02:01:47.078Z,7.9
2023-04-15T02:03:00.619Z,7.9
2023-04-15T02:05:28.882Z,8.2
2023-04-15T02:10:25.394Z,8.5
2023-04-15T02:12:53.645Z,8.8
2023-04-15T02:15:21.909Z,9.7
2023-04-15T02:17:50.162Z,9.9
2023-04-15T02:20:18.418Z,11.1
2023-04-15T02:22:46.678Z,9.6
2023-04-15T02:25:14.928Z,10.7
2023-04-15T02:26:29.664Z,10.2
2023-04-15T02:27:43.204Z,12.1
2023-04-15T02:30:11.459Z,12.2
2023-04-15T02:32:39.716Z,11.8
2023-04-15T02:35:07.981Z,12.2
2023-04-15T02:37:36.234Z,13
2023-04-15T02:42:32.745Z,13.8
2023-04-15T02:45:01.001Z,14
2023-04-15T02:47:29.261Z,14.5
2023-04-15T02:49:57.515Z,16.1
2023-04-15T02:51:12.250Z,15.4
2023-04-15T02:52:25.797Z,14.7
2023-04-15T02:54:54.054Z,16.2
2023-04-15T02:57:22.308Z,17.7
2023-04-15T02:59:50.559Z,16.3
2023-04-15T03:02:18.818Z,18.6
2023-04-15T03:04:47.078Z,19.4
2023-04-15T03:07:15.328Z,20.4
2023-04-15T03:09:43.586Z,21.3
2023-04-15T03:14:40.099Z,22.3
2023-04-15T03:15:54.829Z,23.3
2023-04-15T03:17:08.379Z,23.4
2023-04-15T03:19:36.637Z,28.3
2023-04-15T03:22:04.897Z,25.6
2023-04-15T03:24:33.146Z,26.6
2023-04-15T03:27:01.407Z,26.5
2023-04-15T03:29:29.662Z,30.4
2023-04-15T03:31:57.915Z,26.1
2023-04-15T03:34:26.174Z,29.8
2023-04-15T03:36:54.428Z,29.7
2023-04-15T03:39:22.692Z,28.5
2023-04-15T03:40:37.422Z,27.8
2023-04-15T03:44:19.451Z,28.5
2023-04-15T03:46:47.710Z,29.5
2023-04-15T03:49:15.969Z,26.8
2023-04-15T03:51:44.230Z,24.8
2023-04-15T03:54:12.488Z,28.9
2023-04-15T03:56:40.746Z,28.8
2023-04-15T03:59:08.997Z,35.9
2023-04-15T04:01:37.257Z,29.1
2023-04-15T04:04:05.509Z,25.2
2023-04-15T04:05:20.247Z,30.8
2023-04-15T04:06:33.794Z,33.9
2023-04-15T04:09:02.042Z,30.8
2023-04-15T04:11:30.300Z,32.6
2023-04-15T04:16:26.813Z,29.5
2023-04-15T04:18:55.077Z,35.4
2023-04-15T04:21:23.331Z,39.2
2023-04-15T04:23:51.593Z,36.3
2023-04-15T04:26:19.847Z,38.6
2023-04-15T04:28:48.101Z,34.4
2023-04-15T04:30:02.831Z,32.5
2023-04-15T04:31:16.383Z,38.1
2023-04-15T04:33:44.637Z,35.9
2023-04-15T04:36:12.896Z,36.5
2023-04-15T04:38:41.151Z,37.8
2023-04-15T04:41:09.403Z,36.4
2023-04-15T04:43:37.662Z,35.3
2023-04-15T04:48:34.176Z,37.9
2023-04-15T04:51:02.438Z,32.7
2023-04-15T04:53:30.695Z,43.4
2023-04-15T04:54:45.427Z,46.3
2023-04-15T04:55:58.970Z,36.3
2023-04-15T04:58:27.223Z,33.2
2023-04-15T05:00:55.483Z,34.8
2023-04-15T05:03:23.744Z,39.8
2023-04-15T05:05:51.995Z,35.4
2023-04-15T05:08:20.252Z,33
2023-04-15T05:10:48.510Z,32
2023-04-15T05:13:16.769Z,36.6
2023-04-15T05:15:45.024Z,39.4
2023-04-15T05:19:28.016Z,35.6
2023-04-15T05:20:41.564Z,36.2
2023-04-15T05:23:09.816Z,42.2
2023-04-15T05:25:38.076Z,38.2
2023-04-15T05:28:06.336Z,38.2
2023-04-15T05:30:34.592Z,44.2
2023-04-15T05:33:02.849Z,39.4
2023-04-15T05:35:31.107Z,41.4
2023-04-15T05:37:59.357Z,38.8
2023-04-15T05:40:27.619Z,42
2023-04-15T05:42:55.878Z,43
2023-04-15T05:44:10.599Z,50.6
2023-04-15T05:45:24.150Z,43.4
2023-04-15T05:50:20.663Z,46.8
2023-04-15T05:52:48.920Z,44.9
2023-04-15T05:55:17.178Z,47.2
2023-04-15T05:57:45.438Z,47
2023-04-15T06:00:13.696Z,52
2023-04-15T06:02:41.946Z,47.4
2023-04-15T06:05:10.210Z,54.5
2023-04-15T06:07:38.465Z,52.5
2023-04-15T06:08:53.196Z,54.7
2023-04-15T06:10:06.736Z,53.2
2023-04-15T06:12:34.997Z,49
2023-04-15T06:15:03.257Z,54
2023-04-15T06:17:31.506Z,45.1
2023-04-15T06:22:28.028Z,55.8
2023-04-15T06:24:56.277Z,51.9
2023-04-15T06:27:24.541Z,56.2
2023-04-15T06:29:52.794Z,51.8
2023-04-15T06:32:21.056Z,56.8
2023-04-15T06:33:35.780Z,54.3
2023-04-15T06:34:49.330Z,63.6
2023-04-15T06:37:17.583Z,57.9
2023-04-15T06:39:45.844Z,66.9
2023-04-15T06:42:14.104Z,59.7
2023-04-15T06:44:42.353Z,49.4
2023-04-15T06:47:10.610Z,56.7
2023-04-15T06:49:38.876Z,52.7
2023-04-15T06:54:35.390Z,58.1
2023-04-15T06:57:03.643Z,46.9
2023-04-15T06:58:18.373Z,57.9
2023-04-15T06:59:31.923Z,51.1
2023-04-15T07:02:00.173Z,49.7
2023-04-15T07:04:28.436Z,52.8
2023-04-15T07:06:56.688Z,46
2023-04-15T07:09:24.948Z,53.5
2023-04-15T07:11:53.204Z,48.5
2023-04-15T07:14:21.465Z,54.1
2023-04-15T07:16:49.723Z,54.4
2023-04-15T07:19:17.977Z,53.4
2023-04-15T07:21:46.233Z,56.3
2023-04-15T07:24:14.495Z,55.7
2023-04-15T07:26:42.755Z,57.9
2023-04-15T07:29:11.011Z,56.8
2023-04-15T07:31:39.268Z,58.9
2023-04-15T07:34:07.519Z,54.8
2023-04-15T07:36:35.782Z,57.7
2023-04-15T07:39:04.038Z,54.7
2023-04-15T07:41:32.296Z,53.4
2023-04-15T07:44:00.555Z,57.1
2023-04-15T07:46:28.809Z,56.1
2023-04-15T07:47:43.560Z,57.7
2023-04-15T07:48:57.102Z,54.4
2023-04-15T07:51:25.364Z,56.5
2023-04-15T07:56:21.880Z,55.6
2023-04-15T07:58:50.136Z,58.9
2023-04-15T08:01:18.392Z,60
2023-04-15T08:03:46.645Z,57.3
2023-04-15T08:06:14.908Z,55.2
2023-04-15T08:08:43.162Z,58.3
2023-04-15T08:11:11.414Z,57
2023-04-15T08:12:26.197Z,59.4
2023-04-15T08:13:39.690Z,57.6
2023-04-15T08:16:07.951Z,56.3
2023-04-15T08:18:36.213Z,59.3
2023-04-15T08:21:04.471Z,53.8
2023-04-15T08:23:32.730Z,57.6
2023-04-15T08:28:29.235Z,53.3
2023-04-15T08:30:57.500Z,53.6
2023-04-15T08:33:25.754Z,53.9
2023-04-15T08:35:54.008Z,54.9
2023-04-15T08:37:08.736Z,49.2
2023-04-15T08:38:22.286Z,49.7
2023-04-15T08:40:50.541Z,51.8
2023-04-15T08:43:18.805Z,48.1
2023-04-15T08:45:47.059Z,51.1
2023-04-15T08:48:15.319Z,51.9
2023-04-15T08:50:43.576Z,52
2023-04-15T08:53:11.826Z,53.2
2023-04-15T08:55:40.092Z,51.9
2023-04-15T09:00:36.604Z,55.1
2023-04-15T09:01:51.336Z,50.7
2023-04-15T09:03:04.878Z,50.7
2023-04-15T09:05:33.133Z,47.6
2023-04-15T09:08:01.390Z,48.5
2023-04-15T09:10:29.648Z,49.1
2023-04-15T09:12:57.906Z,47.2
2023-04-15T09:15:26.158Z,46.8
2023-04-15T09:17:54.418Z,47.6
2023-04-15T09:20:22.673Z,43.6
2023-04-15T09:22:50.937Z,44.9
2023-04-15T09:25:19.189Z,43.4
2023-04-15T09:26:33.924Z,44.1
2023-04-15T09:30:15.956Z,39.3
2023-04-15T09:32:44.212Z,39.2
2023-04-15T09:35:12.472Z,40.5
2023-04-15T09:37:40.722Z,37.6
2023-04-15T09:40:08.978Z,36.2
2023-04-15T09:42:37.238Z,30.9
2023-04-15T09:45:05.503Z,30.1
2023-04-15T09:47:33.754Z,32.9
2023-04-15T09:50:02.013Z,33.2
2023-04-15T09:51:16.736Z,31.3
2023-04-15T09:52:30.286Z,31
2023-04-15T09:54:58.542Z,30.3
2023-04-15T09:57:26.798Z,30.9
2023-04-15T10:02:23.315Z,30.4
2023-04-15T10:04:51.567Z,31.2
2023-04-15T10:07:19.827Z,33.8
2023-04-15T10:09:48.083Z,28.4
2023-04-15T10:12:16.339Z,29.5
2023-04-15T10:14:44.594Z,25.9
2023-04-15T10:15:59.325Z,31.1
2023-04-15T10:17:12.874Z,28
2023-04-15T10:19:41.133Z,31.4
2023-04-15T10:22:09.384Z,29.3
2023-04-15T10:24:37.649Z,23.6
2023-04-15T10:27:05.898Z,23.4
2023-04-15T10:29:34.162Z,22
2023-04-15T10:34:30.672Z,22.1
2023-04-15T10:36:58.922Z,20.8
2023-04-15T10:39:27.187Z,20
2023-04-15T10:40:41.915Z,18.2
2023-04-15T10:41:55.458Z,18
2023-04-15T10:44:23.721Z,17.2
2023-04-15T10:46:51.971Z,17.1
2023-04-15T10:49:20.235Z,18.3
2023-04-15T10:51:48.491Z,17.2
2023-04-15T10:54:16.745Z,17.5
2023-04-15T10:56:45.003Z,17.1
2023-04-15T10:59:13.260Z,16.7
2023-04-15T11:01:41.512Z,18
2023-04-15T11:05:24.504Z,17.4
2023-04-15T11:06:38.044Z,18
2023-04-15T11:09:06.310Z,15.9
2023-04-15T11:11:34.566Z,14.9
2023-04-15T11:14:02.820Z,14.5
2023-04-15T11:16:31.077Z,13.6
2023-04-15T11:18:59.327Z,13.1
2023-04-15T11:21:27.588Z,13
2023-04-15T11:23:55.843Z,12
2023-04-15T11:26:24.107Z,11.2
2023-04-15T11:28:52.363Z,10.7
2023-04-15T11:30:07.091Z,11
2023-04-15T11:31:20.633Z,10.9
2023-04-15T11:36:17.143Z,11.6
2023-04-15T11:38:45.403Z,11.6
2023-04-15T11:41:13.662Z,11.2
2023-04-15T11:43:41.914Z,11.3
2023-04-15T11:46:10.172Z,10.6
2023-04-15T11:48:38.426Z,10.3
2023-04-15T11:51:06.686Z,10
2023-04-15T11:53:34.948Z,10.1
2023-04-15T11:54:49.673Z,10.5
2023-04-15T11:56:03.216Z,10.3
2023-04-15T11:58:31.477Z,9.6
2023-04-15T12:00:59.737Z,8.8
2023-04-15T12:03:27.991Z,8.7
2023-04-15T12:08:24.507Z,9.2
2023-04-15T12:10:52.756Z,8.8
2023-04-15T12:13:21.014Z,8.4
2023-04-15T12:15:49.274Z,8.4
2023-04-15T12:18:17.524Z,8.6
2023-04-15T12:19:32.256Z,8.6
2023-04-15T12:20:45.808Z,9.1
2023-04-15T12:23:14.060Z,8.5
2023-04-15T12:25:42.316Z,9.5
2023-04-15T12:28:10.570Z,9.7
2023-04-15T12:30:38.830Z,9.6
2023-04-15T12:33:07.092Z,10.1
2023-04-15T12:35:35.342Z,10.3
2023-04-15T12:40:31.859Z,10.3
2023-04-15T12:43:00.108Z,10.4
2023-04-15T12:44:14.842Z,10.4
2023-04-15T12:45:28.394Z,11.1
2023-04-15T12:47:56.642Z,10.6
2023-04-15T12:50:24.905Z,11.5
2023-04-15T12:52:53.161Z,10.3
2023-04-15T12:55:21.419Z,10.2
2023-04-15T12:57:49.670Z,10.9
2023-04-15T13:00:17.925Z,11.7
2023-04-15T13:02:46.187Z,10.5
2023-04-15T13:05:14.441Z,9.3
2023-04-15T13:07:42.699Z,9.7
2023-04-15T13:10:10.959Z,10.1
2023-04-15T13:12:39.216Z,10.1
2023-04-15T13:15:07.468Z,9.1
2023-04-15T13:17:35.726Z,9.5
2023-04-15T13:20:03.986Z,9.5
2023-04-15T13:22:32.237Z,10.1
2023-04-15T13:25:00.496Z,9.2
2023-04-15T13:27:28.752Z,9.3
2023-04-15T13:29:57.008Z,11.1
2023-04-15T13:32:25.264Z,10.7
2023-04-15T13:33:40.008Z,11.2
2023-04-15T13:34:53.558Z,10
2023-04-15T13:37:21.814Z,9.4
2023-04-15T13:42:18.328Z,9.5
2023-04-15T13:44:46.581Z,9
2023-04-15T13:47:14.843Z,9.6
2023-04-15T13:49:43.099Z,9.5
2023-04-15T13:52:11.349Z,9
2023-04-15T13:54:39.607Z,9.1
2023-04-15T13:57:07.869Z,9.7
2023-04-15T13:58:22.598Z,9.7
2023-04-15T13:59:36.140Z,9.5
2023-04-15T14:02:04.395Z,10
2023-04-15T14:04:32.653Z,9.4
2023-04-15T14:07:00.908Z,9.4
2023-04-15T14:09:29.168Z,9
2023-04-15T14:14:25.686Z,8.8
2023-04-15T14:16:53.940Z,8.7
2023-04-15T14:19:22.193Z,10
2023-04-15T14:21:50.453Z,9.8
2023-04-15T14:23:05.183Z,10.2
2023-04-15T14:24:18.729Z,10
2023-04-15T14:26:46.980Z,9.7
2023-04-15T14:29:15.240Z,10
2023-04-15T14:31:43.500Z,9.7
2023-04-15T14:34:11.750Z,8.9
2023-04-15T14:36:40.012Z,10.3
2023-04-15T14:39:08.264Z,11.6
2023-04-15T14:41:36.526Z,11.2
2023-04-15T14:46:33.034Z,12.1
2023-04-15T14:47:47.762Z,12.5
2023-04-15T14:49:01.306Z,12.4
2023-04-15T14:51:29.566Z,13
2023-04-15T14:53:57.826Z,13.3
2023-04-15T14:56:26.083Z,11.8
2023-04-15T14:58:54.335Z,11.2
2023-04-15T15:01:22.589Z,11.8
2023-04-15T15:03:50.849Z,12
2023-04-15T15:06:19.109Z,12.6
2023-04-15T15:08:47.365Z,12.3
2023-04-15T15:11:15.619Z,11.6
2023-04-15T15:12:30.351Z,12.2
2023-04-15T15:16:12.385Z,13.3
2023-04-15T15:18:40.638Z,12.6
2023-04-15T15:21:08.893Z,14.1
2023-04-15T15:23:37.151Z,13.5
2023-04-15T15:26:05.407Z,14.9
2023-04-15T15:28:33.666Z,14.2
2023-04-15T15:31:01.920Z,14.1
2023-04-15T15:33:30.181Z,13.9
2023-04-15T15:35:58.435Z,14.8
2023-04-15T15:37:13.163Z,13.7
2023-04-15T15:38:26.715Z,13.4
2023-04-15T15:40:54.970Z,13.8
2023-04-15T15:43:23.222Z,13.9
2023-04-15T15:48:19.742Z,14.4
2023-04-15T15:50:48.001Z,15
2023-04-15T15:53:16.257Z,14.5
2023-04-15T15:55:44.515Z,14.6
2023-04-15T15:58:12.763Z,14.3
2023-04-15T16:00:41.027Z,14.1
2023-04-15T16:01:55.755Z,14.5
2023-04-15T16:03:09.305Z,14.8
2023-04-15T16:05:37.558Z,14
2023-04-15T16:08:05.817Z,13.7
2023-04-15T16:10:34.076Z,14
2023-04-15T16:13:02.328Z,13.8
2023-04-15T16:15:30.589Z,13.2
2023-04-15T16:20:27.097Z,13.8
2023-04-15T16:22:55.357Z,13.9
2023-04-15T16:25:23.613Z,14.1
2023-04-15T16:26:38.337Z,14.2
2023-04-15T16:27:51.889Z,15.1
2023-04-15T16:30:20.146Z,14.7
2023-04-15T16:32:48.397Z,14.5
2023-04-15T16:35:16.656Z,13.7
2023-04-15T16:37:44.915Z,14.5
2023-04-15T16:40:13.168Z,14.1
2023-04-15T16:42:41.428Z,13.5
2023-04-15T16:45:09.689Z,13.1
2023-04-15T16:47:37.942Z,12.7
2023-04-15T16:51:20.927Z,13.6
2023-04-15T16:52:34.477Z,12.6
2023-04-15T16:55:02.731Z,12.8
2023-04-15T16:57:30.997Z,13.5
2023-04-15T16:59:59.242Z,13.1
2023-04-15T17:02:27.504Z,12.7
2023-04-15T17:04:55.760Z,12.6
2023-04-15T17:07:24.014Z,13.5
2023-04-15T17:09:52.274Z,13.3
2023-04-15T17:12:20.526Z,14.2
2023-04-15T17:14:48.787Z,13.8
2023-04-15T17:16:03.517Z,13.9
2023-04-15T17:17:17.057Z,14.3
2023-04-15T17:22:13.573Z,14
2023-04-15T17:24:41.835Z,13.3
2023-04-15T17:27:10.087Z,14.9
2023-04-15T17:29:38.343Z,14.7
2023-04-15T17:32:06.603Z,14.2
2023-04-15T17:34:34.859Z,14.2
2023-04-15T17:37:03.112Z,15.7
2023-04-15T17:39:31.374Z,15.8
2023-04-15T17:40:46.106Z,14.8
2023-04-15T17:41:59.650Z,15.6
2023-04-15T17:44:27.912Z,14.9
2023-04-15T17:46:56.166Z,15.2
2023-04-15T17:49:24.424Z,16.3
2023-04-15T17:54:20.936Z,15.9
2023-04-15T17:56:49.191Z,15.7
2023-04-15T17:59:17.451Z,16.2
2023-04-15T18:01:45.703Z,16.7
2023-04-15T18:04:13.965Z,16.1
2023-04-15T18:05:28.694Z,16.1
2023-04-15T18:06:42.241Z,16.4
2023-04-15T18:09:10.497Z,16.2
2023-04-15T18:11:38.751Z,15.7
2023-04-15T18:14:07.007Z,16
2023-04-15T18:16:35.261Z,16.8
2023-04-15T18:19:03.525Z,16.8
2023-04-15T18:21:31.776Z,17
2023-04-15T18:26:28.294Z,17.4
2023-04-15T18:28:56.551Z,18
2023-04-15T18:30:11.276Z,17
2023-04-15T18:31:24.825Z,16.9
2023-04-15T18:33:53.082Z,17.2
2023-04-15T18:36:21.341Z,16.5
2023-04-15T18:38:49.595Z,16.1
2023-04-15T18:41:17.849Z,17.2
2023-04-15T18:43:46.105Z,16.2
2023-04-15T18:46:14.363Z,16.6
2023-04-15T18:48:42.621Z,15.1
2023-04-15T18:51:10.881Z,16.4
2023-04-15T18:53:39.137Z,16
2023-04-15T18:56:07.400Z,16.6
2023-04-15T18:58:35.650Z,16.7
2023-04-15T19:01:03.911Z,16.9
2023-04-15T19:03:32.167Z,16.2
2023-04-15T19:06:00.427Z,15.8
2023-04-15T19:08:28.678Z,15.7
2023-04-15T19:10:56.935Z,16.3
2023-04-15T19:13:25.196Z,15.1
2023-04-15T19:15:53.452Z,16.1
2023-04-15T19:18:21.701Z,16
2023-04-15T19:19:36.453Z,16.2
2023-04-15T19:20:50.002Z,15.8
2023-04-15T19:23:18.256Z,15.7
2023-04-15T19:28:14.774Z,15.8
2023-04-15T19:30:43.028Z,16
2023-04-15T19:33:11.294Z,16.7
2023-04-15T19:35:39.539Z,15.6
2023-04-15T19:38:07.797Z,17.3
2023-04-15T19:40:36.055Z,16.3
2023-04-15T19:43:04.307Z,15.8
2023-04-15T19:44:19.039Z,15.1
2023-04-15T19:45:32.583Z,15.1
2023-04-15T19:48:00.845Z,14.8
2023-04-15T19:50:29.102Z,15.6
2023-04-15T19:52:57.353Z,14.7
2023-04-15T19:55:25.608Z,14.9
2023-04-15T20:00:22.123Z,14.9
2023-04-15T20:02:50.386Z,14.6
2023-04-15T20:05:18.640Z,15.5
2023-04-15T20:07:46.899Z,15.6
2023-04-15T20:09:01.630Z,15.3
2023-04-15T20:10:15.169Z,16.4
2023-04-15T20:12:43.432Z,15.7
2023-04-15T20:15:11.686Z,15.9
2023-04-15T20:17:39.943Z,15.6
2023-04-15T20:20:08.205Z,15.4
2023-04-15T20:22:36.460Z,16.3
2023-04-15T20:25:04.716Z,16
2023-04-15T20:27:32.974Z,16.4
2023-04-15T20:32:29.489Z,16.8
2023-04-15T20:33:44.216Z,15.5
2023-04-15T20:34:57.763Z,15.9
2023-04-15T20:37:26.020Z,16.3
2023-04-15T20:39:54.280Z,16.1
2023-04-15T20:42:22.529Z,17.3
2023-04-15T20:44:50.795Z,16.4
2023-04-15T20:47:19.047Z,16.3
2023-04-15T20:49:47.304Z,15.8
2023-04-15T20:52:15.562Z,16.7
2023-04-15T20:54:43.820Z,16.7
2023-04-15T20:57:12.080Z,16.5
2023-04-15T20:58:26.809Z,16.9
2023-04-15T21:02:08.846Z,16.4
2023-04-15T21:04:37.100Z,17.5
2023-04-15T21:07:05.357Z,16.4
2023-04-15T21:09:33.615Z,18
2023-04-15T21:12:01.873Z,16.9
2023-04-15T21:14:30.125Z,18.2
2023-04-15T21:16:58.380Z,16.5
2023-04-15T21:19:26.636Z,16.7
2023-04-15T21:21:54.902Z,17.5
2023-04-15T21:23:09.628Z,17.7
2023-04-15T21:24:23.172Z,17.6
2023-04-15T21:26:51.432Z,17.2
2023-04-15T21:29:19.687Z,17.2
2023-04-15T21:34:16.255Z,17.9
2023-04-15T21:36:44.463Z,17.4
2023-04-15T21:39:12.715Z,16.6
2023-04-15T21:41:40.971Z,17
2023-04-15T21:44:09.236Z,16.9
2023-04-15T21:46:37.487Z,17.2
2023-04-15T21:47:52.220Z,17.3
2023-04-15T21:49:05.763Z,17.6
2023-04-15T21:51:34.019Z,17.8
2023-04-15T21:54:02.284Z,17.3
2023-04-15T21:56:30.542Z,17.1
2023-04-15T21:58:58.799Z,17.7
2023-04-15T22:01:27.056Z,18.2
2023-04-15T22:06:23.561Z,17.7
2023-04-15T22:08:51.826Z,17.9
2023-04-15T22:11:20.085Z,17.7
2023-04-15T22:12:34.808Z,18.2
2023-04-15T22:13:48.357Z,17.6
2023-04-15T22:16:16.610Z,18
2023-04-15T22:18:44.867Z,18
2023-04-15T22:21:13.133Z,18.2
2023-04-15T22:23:41.385Z,18.8
2023-04-15T22:26:09.643Z,18.4
2023-04-15T22:28:37.897Z,18.5
2023-04-15T22:31:06.157Z,18.7
2023-04-15T22:33:34.419Z,18.1
2023-04-15T22:37:17.401Z,18.5
2023-04-15T22:38:30.953Z,18.2
2023-04-15T22:40:59.210Z,19
2023-04-15T22:43:27.464Z,18.1
2023-04-15T22:45:55.717Z,17.9
2023-04-15T22:48:23.975Z,18.4
2023-04-15T22:50:52.233Z,17.7
2023-04-15T22:53:20.490Z,18.4
2023-04-15T22:55:48.754Z,18.2
2023-04-15T22:58:17.008Z,18.8
2023-04-15T23:00:45.266Z,18.5
2023-04-15T23:01:59.991Z,19.1
2023-04-15T23:03:13.541Z,18.2
2023-04-15T23:08:10.053Z,19.6
2023-04-15T23:10:38.309Z,19.2
2023-04-15T23:13:06.565Z,18.6
2023-04-15T23:15:34.827Z,19.3
2023-04-15T23:18:03.083Z,19.8
2023-04-15T23:20:31.336Z,19
2023-04-15T23:22:59.593Z,19.8
2023-04-15T23:25:27.859Z,19.3
2023-04-15T23:26:42.585Z,19.6
2023-04-15T23:27:56.127Z,19.7
2023-04-15T23:30:24.391Z,20
2023-04-15T23:32:52.645Z,20.8
2023-04-15T23:35:20.900Z,20.5
2023-04-15T23:40:17.420Z,19.7
2023-04-15T23:42:45.672Z,20
2023-04-15T23:45:13.933Z,19.9
2023-04-15T23:47:42.190Z,20.4
2023-04-15T23:50:10.450Z,19.1
2023-04-15T23:51:25.180Z,19.5
2023-04-15T23:52:38.720Z,20.2
2023-04-15T23:55:06.976Z,20.7
2023-04-15T23:57:35.236Z,19.6
